Time;durP1;ratioP1;P1;durP2;ratioP2;P2;SDS_P1;SDS_P2;PMS_P1;PMS_P2;Temp;Humidity;BMP_temperature;BMP_pressure;BME280_temperature;BME280_humidity;BME280_pressure;Samples;Min_cycle;Max_cycle;Signal;HPM_P1;HPM_P2
2022/02/10 00:16:48;;;;;;;20.97;13.27;;;6.70;99.90;;;;;;5053792;28;20305;-60
2022/02/10 00:22:09;;;;;;;21.73;12.67;;;6.80;99.90;;;;;;5044166;28;20639;-61
2022/02/10 00:25:07;;;;;;;25.17;12.33;;;6.80;99.90;;;;;;5038228;28;20244;-60
2022/02/10 00:36:09;;;;;;;25.77;13.90;;;6.90;99.90;;;;;;4990570;28;20265;-60
2022/02/10 00:38:43;;;;;;;24.47;13.93;;;6.90;99.90;;;;;;4991493;28;20237;-60
2022/02/10 00:41:11;;;;;;;24.23;13.40;;;6.90;99.90;;;;;;5013613;28;20228;-61
2022/02/10 00:43:40;;;;;;;24.67;14.30;;;6.80;99.90;;;;;;5033215;28;20241;-61
2022/02/10 00:46:08;;;;;;;23.67;13.83;;;6.70;99.90;;;;;;5033512;28;20232;-60
2022/02/10 00:48:37;;;;;;;24.67;13.27;;;6.70;99.90;;;;;;5032698;28;20635;-61
2022/02/10 00:51:09;;;;;;;23.30;13.13;;;6.90;99.90;;;;;;5035499;28;20593;-60
2022/02/10 00:53:41;;;;;;;29.47;15.17;;;7.00;99.90;;;;;;5050852;28;20318;-60
2022/02/10 00:56:10;;;;;;;26.43;13.80;;;6.90;99.90;;;;;;5053115;28;20769;-61
2022/02/10 00:58:41;;;;;;;28.03;15.27;;;7.10;99.90;;;;;;5049801;28;20239;-61
2022/02/10 01:07:04;;;;;;;34.23;15.67;;;7.20;99.90;;;;;;5033307;28;20228;-60
2022/02/10 01:12:29;;;;;;;28.00;14.77;;;7.20;99.90;;;;;;5052155;28;20235;-60
2022/02/10 01:31:36;;;;;;;25.57;13.47;;;6.90;99.90;;;;;;5051990;28;20262;-61
2022/02/10 01:34:04;;;;;;;28.53;14.30;;;7.10;99.90;;;;;;5046511;28;20251;-61
2022/02/10 01:36:32;;;;;;;25.93;15.07;;;7.00;99.90;;;;;;5051067;28;20290;-61
2022/02/10 01:39:03;;;;;;;27.97;15.20;;;7.10;99.90;;;;;;5052048;28;20235;-60
2022/02/10 01:58:09;;;;;;;25.77;13.10;;;7.20;99.90;;;;;;5051815;28;20258;-60
2022/02/10 02:03:26;;;;;;;25.47;14.10;;;7.30;99.90;;;;;;5051463;28;20239;-61
2022/02/10 02:06:00;;;;;;;30.17;14.33;;;7.20;99.90;;;;;;5051771;28;20240;-61
2022/02/10 02:08:31;;;;;;;23.90;12.40;;;7.10;99.90;;;;;;5051370;28;20326;-61
2022/02/10 02:11:02;;;;;;;22.10;11.00;;;7.10;99.90;;;;;;5051813;28;20256;-60
2022/02/10 02:13:31;;;;;;;20.97;9.47;;;7.00;99.90;;;;;;5051806;28;20227;-60
2022/02/10 02:16:01;;;;;;;19.20;8.83;;;6.90;99.90;;;;;;5050004;28;20248;-61
2022/02/10 02:18:30;;;;;;;13.90;8.43;;;6.80;99.90;;;;;;5048704;28;20242;-60
2022/02/10 02:20:59;;;;;;;14.27;7.37;;;6.90;99.90;;;;;;5031583;28;20302;-60
2022/02/10 02:23:30;;;;;;;16.20;7.53;;;6.80;99.90;;;;;;5031111;28;20228;-61
2022/02/10 02:26:04;;;;;;;11.57;5.63;;;6.80;99.90;;;;;;5031674;28;20716;-61
2022/02/10 02:28:35;;;;;;;13.73;6.03;;;6.80;99.90;;;;;;5031154;28;20236;-61
2022/02/10 02:31:08;;;;;;;12.20;5.70;;;6.90;99.90;;;;;;5031423;28;20291;-61
2022/02/10 02:34:11;;;;;;;12.90;6.00;;;6.90;99.90;;;;;;5030816;28;20247;-61
2022/02/10 02:37:14;;;;;;;10.30;5.57;;;6.90;99.90;;;;;;5050942;28;20318;-61
2022/02/10 03:07:31;;;;;;;6.67;3.83;;;6.80;99.90;;;;;;5033359;28;20236;-61
2022/02/10 03:10:16;;;;;;;10.07;3.47;;;6.80;99.90;;;;;;5030906;28;20667;-61
2022/02/10 03:12:46;;;;;;;8.50;3.60;;;6.90;99.90;;;;;;5050208;28;20777;-60
2022/02/10 03:15:22;;;;;;;11.30;4.63;;;7.10;99.90;;;;;;5050529;28;20232;-60
2022/02/10 03:17:59;;;;;;;7.30;3.63;;;7.00;99.90;;;;;;5049581;28;20289;-61
2022/02/10 03:20:43;;;;;;;10.80;3.70;;;6.90;99.90;;;;;;5050415;28;20235;-61
2022/02/10 04:07:56;;;;;;;7.87;3.40;;;7.40;99.90;;;;;;5034557;28;20251;-60
2022/02/10 04:13:16;;;;;;;6.33;3.50;;;7.50;99.90;;;;;;5049647;28;20231;-61
2022/02/10 04:15:51;;;;;;;7.20;4.00;;;7.40;99.90;;;;;;5049748;28;20247;-61
2022/02/10 04:21:33;;;;;;;9.17;3.90;;;7.00;99.90;;;;;;5050068;28;20293;-60
2022/02/10 04:24:13;;;;;;;7.33;3.57;;;7.20;99.90;;;;;;5049338;28;20250;-61
2022/02/10 04:26:51;;;;;;;9.27;4.27;;;6.90;99.90;;;;;;5048698;28;20642;-61
2022/02/10 04:32:35;;;;;;;6.67;3.63;;;7.10;99.90;;;;;;5049664;28;20279;-61
2022/02/10 05:20:15;;;;;;;10.27;6.10;;;6.90;99.90;;;;;;4978810;28;20671;-60
2022/02/10 05:23:01;;;;;;;9.13;6.07;;;6.80;99.90;;;;;;5021901;28;20294;-60
2022/02/10 05:33:51;;;;;;;10.20;6.93;;;7.10;99.90;;;;;;5032777;28;20335;-60
2022/02/10 05:36:26;;;;;;;14.70;7.63;;;7.40;99.90;;;;;;5035581;28;20240;-60
2022/02/10 05:39:04;;;;;;;13.57;8.13;;;7.70;99.90;;;;;;5032758;28;20290;-60
2022/02/10 05:44:31;;;;;;;9.43;6.67;;;7.50;99.90;;;;;;5038143;28;20247;-61
2022/02/10 05:52:58;;;;;;;10.80;6.67;;;6.70;99.90;;;;;;5036163;28;20290;-61
2022/02/10 05:55:42;;;;;;;10.93;7.23;;;6.90;99.90;;;;;;5059098;28;20644;-60
2022/02/10 05:58:20;;;;;;;10.70;6.80;;;7.10;99.90;;;;;;5061320;28;20306;-61
2022/02/10 06:51:11;;;;;;;13.63;7.53;;;6.80;99.90;;;;;;5049349;28;20240;-61
2022/02/10 06:53:50;;;;;;;11.53;6.73;;;6.80;99.90;;;;;;5049007;28;20706;-61
2022/02/10 07:08:02;;;;;;;12.17;6.77;;;6.90;99.90;;;;;;5064763;28;20308;-62
2022/02/10 07:13:49;;;;;;;12.33;7.37;;;6.90;99.90;;;;;;5049203;28;20616;-62
2022/02/10 07:50:08;;;;;;;13.73;7.70;;;6.70;99.90;;;;;;5032942;28;20716;-62
2022/02/10 07:53:02;;;;;;;11.23;7.23;;;6.80;99.90;;;;;;5042944;28;20647;-61
2022/02/10 08:52:01;;;;;;;11.00;7.33;;;6.80;99.90;;;;;;5066790;28;20595;-62
2022/02/10 08:57:05;;;;;;;12.77;6.63;;;6.80;99.90;;;;;;5066665;28;20276;-62
2022/02/10 09:00:00;;;;;;;9.60;7.47;;;6.80;99.90;;;;;;5066057;28;20270;-62
2022/02/10 09:03:03;;;;;;;7.73;6.23;;;6.80;99.90;;;;;;5066155;28;20322;-62
2022/02/10 09:05:45;;;;;;;10.63;7.93;;;6.80;99.90;;;;;;5078476;28;20698;-62
2022/02/10 09:08:48;;;;;;;13.97;9.03;;;6.80;99.90;;;;;;5062230;28;20318;-63
2022/02/10 09:11:45;;;;;;;10.17;7.40;;;6.80;99.90;;;;;;5059969;28;20227;-62
2022/02/10 09:56:17;;;;;;;19.27;11.50;;;7.10;99.90;;;;;;5046163;28;20323;-62
2022/02/10 10:01:41;;;;;;;21.07;13.50;;;7.20;99.90;;;;;;5046846;28;20266;-62
2022/02/10 10:04:15;;;;;;;19.80;12.43;;;7.20;99.90;;;;;;5052203;28;20255;-62
2022/02/10 10:07:01;;;;;;;20.13;11.97;;;7.20;99.90;;;;;;5052308;28;20297;-62
2022/02/10 10:09:41;;;;;;;16.00;11.47;;;7.30;99.90;;;;;;5047814;28;20255;-62
2022/02/10 10:15:37;;;;;;;20.37;11.50;;;7.40;99.90;;;;;;5051972;28;20266;-62
2022/02/10 10:21:12;;;;;;;16.10;10.90;;;7.50;99.90;;;;;;5052280;28;20235;-62
2022/02/10 10:23:55;;;;;;;19.20;11.83;;;7.50;99.90;;;;;;5043264;28;20278;-62
2022/02/10 10:52:11;;;;;;;15.27;11.37;;;7.80;99.90;;;;;;5046149;28;20271;-62
2022/02/10 10:54:46;;;;;;;15.77;10.30;;;7.90;99.90;;;;;;5046276;28;20235;-62
2022/02/10 10:57:19;;;;;;;16.07;10.73;;;8.00;99.90;;;;;;5046672;28;20246;-62
2022/02/10 11:37:29;;;;;;;14.17;8.83;;;8.70;99.90;;;;;;5045940;28;20243;-62
2022/02/10 11:40:12;;;;;;;13.97;8.47;;;8.80;99.90;;;;;;5045248;28;20256;-61
2022/02/10 11:42:48;;;;;;;13.90;8.40;;;8.90;99.90;;;;;;5044649;28;20911;-62
2022/02/10 12:43:50;;;;;;;9.67;2.70;;;8.90;99.90;;;;;;5004976;28;20264;-61
2022/02/10 13:23:45;;;;;;;8.57;1.90;;;8.40;99.90;;;;;;5044426;28;20233;-60
2022/02/10 14:13:49;;;;;;;7.47;1.50;;;8.10;99.90;;;;;;5051744;28;20234;-61
2022/02/10 14:19:14;;;;;;;10.93;2.33;;;8.20;99.90;;;;;;5044457;28;20326;-60
2022/02/10 14:22:01;;;;;;;10.03;1.87;;;8.20;99.90;;;;;;5043085;28;20231;-61
2022/02/10 14:27:15;;;;;;;9.77;1.80;;;8.30;99.90;;;;;;5044634;28;20247;-61
2022/02/10 14:29:45;;;;;;;8.27;1.73;;;8.40;99.90;;;;;;5025241;28;20742;-61
2022/02/10 14:32:16;;;;;;;6.63;1.63;;;8.40;99.90;;;;;;5044448;28;20249;-61
2022/02/10 14:34:46;;;;;;;7.50;1.80;;;8.30;99.90;;;;;;5032723;28;20339;-60
2022/02/10 14:37:29;;;;;;;5.37;1.47;;;8.40;99.90;;;;;;5044775;28;20246;-61
2022/02/10 14:40:12;;;;;;;5.57;1.33;;;8.30;99.90;;;;;;5046238;28;20272;-61
2022/02/10 14:43:22;;;;;;;6.63;1.33;;;8.30;99.90;;;;;;5045278;28;20235;-61
2022/02/10 15:45:52;;;;;;;5.43;1.57;;;6.30;99.90;;;;;;5044008;27;20683;-63
2022/02/10 15:56:55;;;;;;;6.67;1.80;;;6.10;99.90;;;;;;5064128;27;20600;-62
2022/02/10 16:18:49;;;;;;;8.30;1.77;;;5.70;99.90;;;;;;5060925;28;20726;-61
2022/02/10 16:21:27;;;;;;;6.23;1.40;;;5.60;99.90;;;;;;5057667;28;20277;-62
2022/02/10 16:24:01;;;;;;;6.40;1.57;;;5.60;99.90;;;;;;5050793;28;20481;-61
2022/02/10 16:26:39;;;;;;;6.47;1.70;;;5.60;99.90;;;;;;5021842;28;20682;-61
2022/02/10 16:29:17;;;;;;;5.10;1.70;;;5.60;99.90;;;;;;5021386;28;20246;-62
2022/02/10 16:31:46;;;;;;;9.43;1.60;;;5.60;99.90;;;;;;5027513;28;20667;-61
2022/02/10 16:34:20;;;;;;;5.93;1.43;;;5.50;99.90;;;;;;5023216;28;20243;-62
2022/02/10 16:36:55;;;;;;;7.40;1.53;;;5.50;99.90;;;;;;5022726;28;20260;-61
2022/02/10 16:39:28;;;;;;;7.07;1.87;;;5.50;99.90;;;;;;5020902;28;20523;-61
2022/02/10 16:42:02;;;;;;;5.43;1.80;;;5.50;99.90;;;;;;5030021;28;20258;-61
2022/02/10 16:44:37;;;;;;;7.13;1.80;;;5.50;99.90;;;;;;5020835;28;20243;-60
2022/02/10 16:47:12;;;;;;;7.73;2.30;;;5.50;99.90;;;;;;5027535;28;20993;-62
2022/02/10 16:49:48;;;;;;;8.40;1.80;;;5.40;99.90;;;;;;5026680;28;20271;-61
2022/02/10 16:52:24;;;;;;;9.90;1.83;;;5.50;99.90;;;;;;5026683;28;20433;-62
2022/02/10 16:55:09;;;;;;;6.57;1.73;;;5.40;99.90;;;;;;5020996;28;20239;-62
2022/02/10 16:57:49;;;;;;;8.60;1.73;;;5.40;99.90;;;;;;5025523;28;20243;-62
2022/02/10 17:00:49;;;;;;;7.73;1.87;;;5.40;99.90;;;;;;5022806;28;20249;-61
2022/02/10 17:03:37;;;;;;;4.40;1.70;;;5.40;99.90;;;;;;5046412;28;20249;-61
2022/02/10 17:14:05;;;;;;;5.93;2.17;;;5.40;99.90;;;;;;5022953;28;20244;-62
2022/02/10 17:15:29;;;;;;;7.47;1.93;;;5.40;99.90;;;;;;5039238;28;20259;-62
2022/02/10 17:20:48;;;;;;;6.50;2.23;;;5.30;99.90;;;;;;4999230;28;20252;-61
2022/02/10 17:26:27;;;;;;;9.37;2.20;;;5.30;99.90;;;;;;5008287;28;20480;-62
2022/02/10 17:28:56;;;;;;;7.87;2.00;;;5.30;99.90;;;;;;5012447;28;20494;-61
2022/02/10 17:34:38;;;;;;;11.47;3.10;;;5.30;99.90;;;;;;5004465;28;20483;-62
2022/02/10 17:37:26;;;;;;;10.20;2.33;;;5.30;99.90;;;;;;5027881;28;20571;-62
2022/02/10 17:43:42;;;;;;;12.80;2.97;;;5.30;99.90;;;;;;5006998;28;20470;-62
2022/02/10 17:45:59;;;;;;;5.63;2.40;;;5.30;99.90;;;;;;5028090;28;21235;-62
2022/02/10 17:54:07;;;;;;;8.50;2.50;;;5.30;99.90;;;;;;5019304;28;20916;-62
2022/02/10 17:56:35;;;;;;;9.83;2.20;;;5.30;99.90;;;;;;5025494;28;20476;-61
2022/02/10 17:59:05;;;;;;;4.80;2.13;;;5.20;99.90;;;;;;5040571;28;20508;-61
2022/02/10 18:01:34;;;;;;;6.23;1.70;;;5.20;99.90;;;;;;5032399;28;20484;-61
2022/02/10 18:04:02;;;;;;;10.20;2.03;;;5.10;99.90;;;;;;5038189;28;20857;-62
2022/02/10 18:06:38;;;;;;;8.33;1.80;;;5.20;99.90;;;;;;5034565;28;20604;-62
2022/02/10 18:09:45;;;;;;;8.83;1.93;;;5.20;99.90;;;;;;5028611;28;20270;-60
2022/02/10 18:15:04;;;;;;;6.60;1.70;;;5.10;99.90;;;;;;5026214;28;20271;-62
2022/02/10 18:17:44;;;;;;;6.50;2.20;;;5.10;99.90;;;;;;5030629;28;20475;-62
2022/02/10 18:20:17;;;;;;;5.53;1.70;;;5.10;99.90;;;;;;5028600;28;20486;-61
2022/02/10 18:22:58;;;;;;;5.87;1.50;;;5.00;99.90;;;;;;5031508;28;20539;-62
2022/02/10 18:25:48;;;;;;;3.53;1.33;;;5.00;99.90;;;;;;5030376;28;20486;-62
2022/02/10 18:28:51;;;;;;;5.43;2.00;;;5.00;99.90;;;;;;5033030;28;20482;-62
2022/02/10 19:07:49;;;;;;;11.47;3.80;;;5.00;99.90;;;;;;5014371;28;20279;-62
2022/02/10 19:10:20;;;;;;;9.23;3.27;;;4.90;99.90;;;;;;5026218;28;20689;-62
2022/02/10 19:12:54;;;;;;;7.60;2.27;;;4.80;99.90;;;;;;5024768;28;20243;-62
2022/02/10 19:15:25;;;;;;;10.57;3.03;;;4.80;99.90;;;;;;5026494;28;20569;-62
2022/02/10 19:17:54;;;;;;;8.30;3.27;;;4.80;99.90;;;;;;5026181;28;20240;-62
2022/02/10 19:20:23;;;;;;;9.77;2.63;;;4.80;99.90;;;;;;5025506;28;20244;-62
2022/02/10 19:22:51;;;;;;;6.80;2.60;;;4.80;99.90;;;;;;5024849;28;20266;-62
2022/02/10 19:25:20;;;;;;;13.47;3.07;;;4.80;99.90;;;;;;5026732;28;20824;-62
2022/02/10 19:27:50;;;;;;;10.37;2.10;;;4.80;99.90;;;;;;5025955;28;20499;-61
2022/02/10 19:30:20;;;;;;;7.50;2.50;;;4.80;99.90;;;;;;5025808;28;20236;-61
2022/02/10 19:32:52;;;;;;;13.33;2.60;;;4.80;99.90;;;;;;5024955;28;20240;-61
2022/02/10 19:35:23;;;;;;;9.07;2.53;;;4.80;99.90;;;;;;5026127;28;20470;-61
2022/02/10 19:37:56;;;;;;;9.20;2.27;;;4.80;99.90;;;;;;5025883;28;20564;-62
2022/02/10 19:40:24;;;;;;;9.33;2.97;;;4.80;99.90;;;;;;5026007;28;20824;-62
2022/02/10 19:42:55;;;;;;;12.77;2.10;;;4.80;99.90;;;;;;5024991;28;20493;-62
2022/02/10 19:45:24;;;;;;;8.70;2.30;;;4.70;99.90;;;;;;5026709;28;20314;-60
2022/02/10 19:47:53;;;;;;;9.43;2.63;;;4.70;99.90;;;;;;5025873;28;20244;-62
2022/02/10 19:50:26;;;;;;;10.20;2.40;;;4.60;99.90;;;;;;5026684;28;20533;-62
2022/02/10 19:52:58;;;;;;;8.13;2.80;;;4.60;99.90;;;;;;5024862;28;20603;-62
2022/02/10 19:55:27;;;;;;;11.27;2.77;;;4.60;99.90;;;;;;5025854;28;20251;-62
2022/02/10 19:58:01;;;;;;;9.33;2.57;;;4.60;99.90;;;;;;5025706;28;20998;-61
2022/02/10 20:00:34;;;;;;;6.53;2.43;;;4.70;99.90;;;;;;5025998;28;20309;-62
2022/02/10 20:03:08;;;;;;;8.83;2.80;;;4.60;99.90;;;;;;5024955;28;20475;-62
2022/02/10 20:05:36;;;;;;;11.43;3.30;;;4.70;99.90;;;;;;5026689;28;20571;-63
2022/02/10 20:08:05;;;;;;;11.80;3.13;;;4.60;99.90;;;;;;5025476;28;20577;-62
2022/02/10 20:10:33;;;;;;;11.43;3.13;;;4.70;99.90;;;;;;5025729;28;20477;-62
2022/02/10 20:13:03;;;;;;;9.07;2.60;;;4.70;99.90;;;;;;5024697;28;20565;-62
2022/02/10 20:15:33;;;;;;;14.23;3.50;;;4.70;99.90;;;;;;5025561;28;20490;-62
2022/02/10 20:18:05;;;;;;;11.50;2.83;;;4.60;99.90;;;;;;5025538;28;20532;-62
2022/02/10 20:20:33;;;;;;;12.13;2.80;;;4.60;99.90;;;;;;5025528;28;20883;-62
2022/02/10 20:23:01;;;;;;;6.77;2.90;;;4.70;99.90;;;;;;5023028;28;20271;-61
2022/02/10 20:25:49;;;;;;;9.30;2.43;;;4.70;99.90;;;;;;5025835;28;21168;-61
2022/02/10 20:28:22;;;;;;;10.77;2.60;;;4.70;99.90;;;;;;5025951;28;20471;-62
2022/02/10 20:30:51;;;;;;;11.70;2.40;;;4.70;99.90;;;;;;5025369;28;20544;-62
2022/02/10 20:33:22;;;;;;;7.07;2.33;;;4.70;99.90;;;;;;5024315;28;20476;-61
2022/02/10 20:35:54;;;;;;;8.73;2.90;;;4.70;99.90;;;;;;5025509;28;20471;-62
2022/02/10 20:38:23;;;;;;;9.73;2.20;;;4.70;99.90;;;;;;5025246;28;20475;-62
2022/02/10 20:40:58;;;;;;;8.67;2.30;;;4.70;99.90;;;;;;5025573;28;20232;-62
2022/02/10 20:43:30;;;;;;;9.37;2.80;;;4.70;99.90;;;;;;5028298;28;20244;-62
2022/02/10 20:46:01;;;;;;;7.80;2.17;;;4.70;99.90;;;;;;5029854;28;21117;-62
2022/02/10 20:48:31;;;;;;;11.70;2.80;;;4.60;99.90;;;;;;5028784;28;20918;-62
2022/02/10 20:51:00;;;;;;;10.43;2.33;;;4.70;99.90;;;;;;5028625;28;20999;-62
2022/02/10 20:53:30;;;;;;;12.40;2.57;;;4.60;99.90;;;;;;5028364;28;20486;-62
2022/02/10 20:56:02;;;;;;;7.40;2.10;;;4.60;99.90;;;;;;5028889;28;20493;-62
2022/02/10 20:58:32;;;;;;;12.67;2.97;;;4.60;99.90;;;;;;5028410;28;20593;-62
2022/02/10 21:01:02;;;;;;;11.50;2.33;;;4.50;99.90;;;;;;5028280;28;20484;-61
2022/02/10 21:03:33;;;;;;;5.83;1.93;;;4.50;99.90;;;;;;5028264;28;20542;-61
2022/02/10 21:06:08;;;;;;;10.27;2.20;;;4.40;99.90;;;;;;5029327;28;20852;-62
2022/02/10 21:08:43;;;;;;;7.37;2.17;;;4.40;99.90;;;;;;5027810;28;20927;-62
2022/02/10 21:11:11;;;;;;;9.67;2.70;;;4.50;99.90;;;;;;5027481;28;20465;-62
2022/02/10 21:13:41;;;;;;;12.23;2.67;;;4.40;99.90;;;;;;5028431;28;20481;-62
2022/02/10 21:16:09;;;;;;;9.63;2.83;;;4.40;99.90;;;;;;5028355;28;20499;-62
2022/02/10 21:18:40;;;;;;;7.63;2.30;;;4.40;99.90;;;;;;5027892;28;20481;-62
2022/02/10 21:21:13;;;;;;;8.83;2.27;;;4.50;99.90;;;;;;5027145;28;20497;-62
2022/02/10 21:23:49;;;;;;;6.67;2.23;;;4.40;99.90;;;;;;5028045;28;20558;-61
2022/02/10 21:26:20;;;;;;;6.30;2.33;;;4.40;99.90;;;;;;5029113;28;20520;-62
2022/02/10 21:28:50;;;;;;;8.23;2.03;;;4.40;99.90;;;;;;5028036;28;21099;-62
2022/02/10 21:31:18;;;;;;;7.97;2.07;;;4.40;99.90;;;;;;5027402;28;20506;-62
2022/02/10 21:33:57;;;;;;;11.07;2.77;;;4.40;99.90;;;;;;5027921;28;20486;-62
2022/02/10 21:39:29;;;;;;;10.40;2.53;;;4.40;99.90;;;;;;5012199;28;20920;-61
2022/02/10 21:45:39;;;;;;;13.50;2.60;;;4.50;99.90;;;;;;5007249;28;20536;-62
2022/02/10 21:47:58;;;;;;;10.53;2.53;;;4.50;99.90;;;;;;5007970;28;20964;-62
2022/02/10 21:56:37;;;;;;;13.50;2.80;;;4.50;99.90;;;;;;5007717;28;20501;-62
2022/02/10 21:59:28;;;;;;;10.33;2.33;;;4.40;99.90;;;;;;5007809;28;20251;-62
2022/02/10 22:11:00;;;;;;;8.03;2.37;;;4.40;99.90;;;;;;5007753;28;20563;-62
2022/02/10 22:19:08;;;;;;;11.40;2.30;;;4.40;99.90;;;;;;5007163;28;20919;-62
2022/02/10 22:21:43;;;;;;;12.77;2.20;;;4.50;99.90;;;;;;5006269;28;21433;-61
2022/02/10 22:24:14;;;;;;;9.33;2.40;;;4.40;99.90;;;;;;5007094;28;20472;-62
2022/02/10 22:26:43;;;;;;;11.83;2.40;;;4.40;99.90;;;;;;5007206;28;20987;-62
2022/02/10 22:29:18;;;;;;;10.10;2.37;;;4.50;99.90;;;;;;5007222;28;20981;-61
2022/02/10 22:31:58;;;;;;;9.90;2.43;;;4.40;99.90;;;;;;5005615;28;20472;-62
2022/02/10 22:34:35;;;;;;;6.70;2.20;;;4.50;99.90;;;;;;5006784;28;20522;-60
2022/02/10 22:37:07;;;;;;;9.77;2.23;;;4.50;99.90;;;;;;5007508;28;20491;-62
2022/02/10 22:39:39;;;;;;;6.70;2.07;;;4.50;99.90;;;;;;5007017;28;20244;-62
2022/02/10 22:42:08;;;;;;;11.40;2.40;;;4.40;99.90;;;;;;5006286;28;21309;-61
2022/02/10 22:44:37;;;;;;;9.50;2.03;;;4.40;99.90;;;;;;5006082;28;20475;-61
2022/02/10 22:47:08;;;;;;;6.50;2.40;;;4.50;99.90;;;;;;5007789;28;20849;-62
2022/02/10 22:49:37;;;;;;;13.23;2.50;;;4.50;99.90;;;;;;5006915;28;20255;-62
2022/02/10 22:52:06;;;;;;;11.03;2.03;;;4.50;99.90;;;;;;5005873;28;20573;-62
2022/02/10 22:54:34;;;;;;;7.57;1.93;;;4.50;99.90;;;;;;5006648;28;20255;-62
2022/02/10 22:57:04;;;;;;;5.73;2.00;;;4.50;99.90;;;;;;5006495;28;20379;-61
2022/02/10 22:59:32;;;;;;;13.37;2.67;;;4.50;99.90;;;;;;5005803;28;20535;-61
2022/02/10 23:02:00;;;;;;;11.43;2.07;;;4.40;99.90;;;;;;5007745;28;20236;-62
2022/02/10 23:04:28;;;;;;;8.23;2.00;;;4.40;99.90;;;;;;5018967;28;20492;-62
2022/02/10 23:07:05;;;;;;;9.00;2.47;;;4.40;99.90;;;;;;5011287;28;20263;-61
2022/02/10 23:09:38;;;;;;;13.50;2.63;;;4.40;99.90;;;;;;5010493;28;20529;-62
2022/02/10 23:12:07;;;;;;;9.07;2.10;;;4.50;99.90;;;;;;5011307;28;20563;-61
2022/02/10 23:14:35;;;;;;;13.13;2.17;;;4.40;99.90;;;;;;5011050;28;20252;-61
2022/02/10 23:17:04;;;;;;;10.67;2.87;;;4.40;99.90;;;;;;5011235;28;20483;-61
2022/02/10 23:19:34;;;;;;;7.60;2.17;;;4.40;99.90;;;;;;5010418;28;20479;-61
2022/02/10 23:22:04;;;;;;;11.40;2.13;;;4.50;99.90;;;;;;5010959;28;20476;-61
2022/02/10 23:24:32;;;;;;;11.17;2.60;;;4.40;99.90;;;;;;5010841;28;20487;-61
2022/02/10 23:27:00;;;;;;;10.83;2.30;;;4.40;99.90;;;;;;5011106;28;20525;-61
2022/02/10 23:29:28;;;;;;;11.00;2.67;;;4.40;99.90;;;;;;5010765;28;21031;-61
2022/02/10 23:31:56;;;;;;;11.43;2.40;;;4.40;99.90;;;;;;5022578;28;20870;-61
2022/02/10 23:34:24;;;;;;;9.67;1.70;;;4.50;99.90;;;;;;5014282;28;20242;-61
2022/02/10 23:36:54;;;;;;;7.90;2.17;;;4.50;99.90;;;;;;5010992;28;20551;-61
2022/02/10 23:39:28;;;;;;;8.87;2.40;;;4.40;99.90;;;;;;5011536;28;20842;-61
2022/02/10 23:42:15;;;;;;;12.27;2.37;;;4.40;99.90;;;;;;5022590;28;20700;-61
2022/02/10 23:44:47;;;;;;;10.90;2.30;;;4.40;99.90;;;;;;5011622;28;20529;-61
2022/02/10 23:47:19;;;;;;;7.50;1.77;;;4.40;99.90;;;;;;5010840;28;20888;-61
2022/02/10 23:49:50;;;;;;;8.60;2.23;;;4.40;99.90;;;;;;5009945;28;20832;-62
2022/02/10 23:52:20;;;;;;;8.17;2.30;;;4.50;99.90;;;;;;5010609;28;20244;-61
2022/02/10 23:54:54;;;;;;;7.87;2.10;;;4.40;99.90;;;;;;5010663;28;20476;-61
2022/02/10 23:57:31;;;;;;;8.57;2.00;;;4.40;99.90;;;;;;5010644;28;20509;-61
